createdAt,value
2024-04-22T00:01:51.784Z,99255.63
2024-04-22T00:03:54.273Z,99254.10
2024-04-22T00:05:56.657Z,99250.34
2024-04-22T00:07:59.179Z,99251.11
2024-04-22T00:10:01.589Z,99251.36
2024-04-22T00:12:04.550Z,99249.40
2024-04-22T00:14:09.710Z,99246.05
2024-04-22T00:16:12.149Z,99242.66
2024-04-22T00:18:14.748Z,99240.16
2024-04-22T00:20:17.288Z,99237.17
2024-04-22T00:22:19.807Z,99238.36
2024-04-22T00:24:22.242Z,99237.96
2024-04-22T00:26:24.688Z,99237.05
2024-04-22T00:28:27.291Z,99239.34
2024-04-22T00:30:29.741Z,99238.32
2024-04-22T00:32:32.121Z,99240.70
2024-04-22T00:34:34.681Z,99236.73
2024-04-22T00:36:37.184Z,99232.75
2024-04-22T00:38:39.900Z,99229.98
2024-04-22T00:40:42.513Z,99232.64
2024-04-22T00:42:47.926Z,99237.80
2024-04-22T00:44:50.357Z,99232.27
2024-04-22T00:46:52.918Z,99229.92
2024-04-22T00:48:55.735Z,99232.04
2024-04-22T00:50:58.972Z,99225.48
2024-04-22T00:53:03.792Z,99220.37
2024-04-22T00:55:08.549Z,99219.06
2024-04-22T00:57:12.150Z,99221.45
2024-04-22T00:59:14.794Z,99220.98
2024-04-22T01:01:18.305Z,99222.31
2024-04-22T01:03:21.070Z,99223.37
2024-04-22T01:05:24.056Z,99227.08
2024-04-22T01:07:28.259Z,99226.66
2024-04-22T01:09:30.952Z,99226.61
2024-04-22T01:11:33.748Z,99228.95
2024-04-22T01:13:36.232Z,99228.59
2024-04-22T01:15:38.777Z,99234.23
2024-04-22T01:17:44.877Z,99234.83
2024-04-22T01:19:48.810Z,99234.33
2024-04-22T01:21:51.955Z,99230.20
2024-04-22T01:23:56.475Z,99229.07
2024-04-22T01:26:00.781Z,99227.90
2024-04-22T01:28:05.754Z,99226.38
2024-04-22T01:30:08.876Z,99227.86
2024-04-22T01:32:11.268Z,99227.13
2024-04-22T01:34:13.908Z,99224.92
2024-04-22T01:36:16.359Z,99224.13
2024-04-22T01:38:18.739Z,99231.52
2024-04-22T01:40:21.367Z,99230.34
2024-04-22T01:42:24.373Z,99230.55
2024-04-22T01:44:27.208Z,99230.61
2024-04-22T01:46:29.758Z,99233.14
2024-04-22T01:48:32.500Z,99236.13
2024-04-22T01:50:34.942Z,99238.02
2024-04-22T01:52:37.543Z,99238.38
2024-04-22T01:54:41.163Z,99238.61
2024-04-22T01:56:43.996Z,99235.89
2024-04-22T01:58:46.539Z,99239.24
2024-04-22T02:00:48.983Z,99234.95
2024-04-22T02:02:51.441Z,99233.92
2024-04-22T02:04:53.993Z,99228.54
2024-04-22T02:06:56.420Z,99228.86
2024-04-22T02:08:58.870Z,99230.16
2024-04-22T02:11:01.468Z,99232.40
2024-04-22T02:13:04.476Z,99231.08
2024-04-22T02:15:06.962Z,99231.46
2024-04-22T02:17:11.807Z,99230.52
2024-04-22T02:19:14.263Z,99232.10
2024-04-22T02:21:16.834Z,99233.92
2024-04-22T02:23:19.232Z,99234.09
2024-04-22T02:25:21.651Z,99236.61
2024-04-22T02:27:24.047Z,99235.88
2024-04-22T02:29:26.413Z,99237.05
2024-04-22T02:31:28.887Z,99234.48
2024-04-22T02:33:31.486Z,99236.02
2024-04-22T02:35:35.058Z,99236.07
2024-04-22T02:37:37.570Z,99236.95
2024-04-22T02:39:40.177Z,99239.89
2024-04-22T02:41:42.911Z,99238.56
2024-04-22T02:43:47.633Z,99239.96
2024-04-22T02:45:50.049Z,99240.14
2024-04-22T02:47:52.559Z,99239.89
2024-04-22T02:49:55.051Z,99238.75
2024-04-22T02:51:57.449Z,99238.40
2024-04-22T02:53:59.853Z,99236.09
2024-04-22T02:56:02.245Z,99234.36
2024-04-22T02:58:04.931Z,99231.70
2024-04-22T03:00:07.960Z,99227.75
2024-04-22T03:02:11.555Z,99225.98
2024-04-22T03:04:14.299Z,99231.10
2024-04-22T03:06:16.992Z,99227.55
2024-04-22T03:08:19.398Z,99226.08
2024-04-22T03:10:21.889Z,99223.56
2024-04-22T03:12:24.345Z,99224.83
2024-04-22T03:14:26.845Z,99228.77
2024-04-22T03:16:29.300Z,99230.79
2024-04-22T03:18:31.984Z,99233.46
2024-04-22T03:20:37.740Z,99234.44
2024-04-22T03:22:41.161Z,99236.34
2024-04-22T03:24:44.197Z,99234.13
2024-04-22T03:26:46.556Z,99237.33
2024-04-22T03:28:48.934Z,99233.46
2024-04-22T03:30:51.330Z,99234.52
2024-04-22T03:32:54.113Z,99232.71
2024-04-22T03:34:56.500Z,99230.98
2024-04-22T03:36:59.045Z,99232.52
2024-04-22T03:39:01.572Z,99230.79
2024-04-22T03:41:04.576Z,99235.64
2024-04-22T03:43:07.167Z,99235.30
2024-04-22T03:45:10.666Z,99234.70
2024-04-22T03:47:31.507Z,99235.70
2024-04-22T03:49:52.769Z,99236.29
2024-04-22T03:51:55.255Z,99231.08
2024-04-22T03:53:58.838Z,99235.31
2024-04-22T03:56:01.225Z,99230.34
2024-04-22T03:58:03.933Z,99227.39
2024-04-22T04:00:07.124Z,99228.86
2024-04-22T04:02:14.384Z,99229.51
2024-04-22T04:04:17.066Z,99226.98
2024-04-22T04:06:19.617Z,99230.48
2024-04-22T04:08:22.025Z,99224.04
2024-04-22T04:10:24.681Z,99225.11
2024-04-22T04:12:27.146Z,99219.84
2024-04-22T04:14:29.539Z,99215.75
2024-04-22T04:16:32.205Z,99214.17
2024-04-22T04:18:34.831Z,99207.02
2024-04-22T04:20:38.079Z,99208.75
2024-04-22T04:22:40.880Z,99205.22
2024-04-22T04:24:43.419Z,99203.79
2024-04-22T04:26:45.794Z,99206.77
2024-04-22T04:28:51.486Z,99213.33
2024-04-22T04:31:01.561Z,99216.73
2024-04-22T04:33:04.385Z,99215.81
2024-04-22T04:35:08.531Z,99218.39
2024-04-22T04:37:11.584Z,99218.52
2024-04-22T04:39:14.348Z,99225.36
2024-04-22T04:41:17.699Z,99225.92
2024-04-22T04:43:20.166Z,99220.84
2024-04-22T04:45:22.543Z,99221.58
2024-04-22T04:47:25.155Z,99223.92
2024-04-22T04:49:27.748Z,99221.24
2024-04-22T04:51:30.273Z,99218.75
2024-04-22T04:53:32.756Z,99223.46
2024-04-22T04:55:35.387Z,99225.89
2024-04-22T04:57:37.849Z,99228.73
2024-04-22T04:59:40.242Z,99230.55
2024-04-22T05:01:43.657Z,99237.35
2024-04-22T05:03:46.844Z,99239.26
2024-04-22T05:05:59.974Z,99235.92
2024-04-22T05:08:04.510Z,99235.81
2024-04-22T05:10:07.686Z,99237.77
2024-04-22T05:12:10.234Z,99237.18
2024-04-22T05:14:12.801Z,99235.65
2024-04-22T05:16:15.273Z,99236.88
2024-04-22T05:18:17.802Z,99238.04
2024-04-22T05:20:20.533Z,99232.84
2024-04-22T05:22:23.028Z,99238.21
2024-04-22T05:24:29.758Z,99235.74
2024-04-22T05:26:32.361Z,99234.56
2024-04-22T05:28:34.901Z,99236.97
2024-04-22T05:30:37.425Z,99237.00
2024-04-22T05:32:40.142Z,99237.52
2024-04-22T05:35:01.187Z,99241.08
2024-04-22T05:37:03.978Z,99239.30
2024-04-22T05:39:06.332Z,99237.59
2024-04-22T05:41:09.910Z,99235.98
2024-04-22T05:43:12.358Z,99236.86
2024-04-22T05:45:14.922Z,99238.27
2024-04-22T05:47:17.320Z,99237.38
2024-04-22T05:49:19.889Z,99239.44
2024-04-22T05:51:22.377Z,99234.23
2024-04-22T05:53:24.774Z,99230.77
2024-04-22T05:55:27.232Z,99236.05
2024-04-22T05:57:29.782Z,99232.03
2024-04-22T05:59:32.241Z,99227.45
2024-04-22T06:01:34.884Z,99224.74
2024-04-22T06:03:37.933Z,99227.18
2024-04-22T06:05:40.397Z,99224.81
2024-04-22T06:07:42.977Z,99225.83
2024-04-22T06:09:45.488Z,99221.55
2024-04-22T06:11:57.614Z,99218.63
2024-04-22T06:14:10.399Z,99216.86
2024-04-22T06:16:12.964Z,99218.05
2024-04-22T06:18:15.759Z,99215.23
2024-04-22T06:20:18.390Z,99216.64
2024-04-22T06:22:20.822Z,99218.44
2024-04-22T06:24:23.221Z,99214.83
2024-04-22T06:26:25.694Z,99210.27
2024-04-22T06:28:28.178Z,99208.92
2024-04-22T06:30:30.598Z,99203.71
2024-04-22T06:32:36.147Z,99204.25
2024-04-22T06:34:38.734Z,99205.44
2024-04-22T06:36:42.280Z,99207.29
2024-04-22T06:38:44.898Z,99210.60
2024-04-22T06:40:47.692Z,99209.98
2024-04-22T06:42:50.290Z,99203.73
2024-04-22T06:44:52.657Z,99197.95
2024-04-22T06:46:56.139Z,99198.50
2024-04-22T06:48:58.645Z,99194.42
2024-04-22T06:51:01.683Z,99197.24
2024-04-22T06:53:04.257Z,99198.55
2024-04-22T06:55:06.767Z,99200.68
2024-04-22T06:57:09.197Z,99203.34
2024-04-22T06:59:11.807Z,99204.48
2024-04-22T07:01:23.958Z,99207.34
2024-04-22T07:03:35.321Z,99206.58
2024-04-22T07:05:38.032Z,99204.51
2024-04-22T07:07:40.575Z,99204.79
2024-04-22T07:09:43.166Z,99208.29
2024-04-22T07:11:45.658Z,99206.95
2024-04-22T07:13:48.066Z,99208.91
2024-04-22T07:15:50.854Z,99207.33
2024-04-22T07:17:53.570Z,99208.92
2024-04-22T07:19:56.247Z,99204.02
2024-04-22T07:22:02.536Z,99199.77
2024-04-22T07:24:06.231Z,99202.02
2024-04-22T07:26:09.394Z,99202.67
2024-04-22T07:28:12.675Z,99200.86
2024-04-22T07:30:17.764Z,99198.98
2024-04-22T07:32:20.549Z,99198.69
2024-04-22T07:34:23.358Z,99199.48
2024-04-22T07:36:40.536Z,99198.16
2024-04-22T07:38:44.308Z,99197.81
2024-04-22T07:40:47.796Z,99200.36
2024-04-22T07:42:50.285Z,99201.52
2024-04-22T07:44:52.756Z,99197.13
2024-04-22T07:46:55.241Z,99195.66
2024-04-22T07:48:57.805Z,99197.10
2024-04-22T07:51:04.019Z,99199.69
2024-04-22T07:53:07.436Z,99198.53
2024-04-22T07:55:11.898Z,99203.20
2024-04-22T07:57:14.671Z,99206.41
2024-04-22T07:59:17.327Z,99208.73
2024-04-22T08:01:19.988Z,99209.55
2024-04-22T08:03:22.746Z,99209.39
2024-04-22T08:05:25.459Z,99203.27
2024-04-22T08:07:28.162Z,99204.39
2024-04-22T08:09:31.307Z,99202.62
2024-04-22T08:11:34.150Z,99202.80
2024-04-22T08:13:36.589Z,99204.16
2024-04-22T08:15:39.732Z,99197.23
2024-04-22T08:17:42.252Z,99195.73
2024-04-22T08:19:44.823Z,99200.11
2024-04-22T08:21:48.449Z,99199.63
2024-04-22T08:23:50.866Z,99204.77
2024-04-22T08:25:54.019Z,99204.71
2024-04-22T08:27:56.513Z,99206.59
2024-04-22T08:30:02.198Z,99207.40
2024-04-22T08:32:05.290Z,99204.35
2024-04-22T08:34:08.376Z,99207.77
2024-04-22T08:36:11.932Z,99205.41
2024-04-22T08:38:16.494Z,99205.59
2024-04-22T08:40:24.746Z,99204.78
2024-04-22T08:42:29.143Z,99194.41
2024-04-22T08:44:31.580Z,99198.95
2024-04-22T08:46:34.704Z,99200.54
2024-04-22T08:48:38.544Z,99201.94
2024-04-22T08:50:42.254Z,99198.48
2024-04-22T08:52:51.651Z,99196.07
2024-04-22T08:54:58.743Z,99198.27
2024-04-22T08:57:01.643Z,99197.76
2024-04-22T08:59:04.303Z,99195.10
2024-04-22T09:01:08.038Z,99200.48
2024-04-22T09:03:10.881Z,99199.19
2024-04-22T09:05:14.923Z,99198.61
2024-04-22T09:07:18.810Z,99197.38
2024-04-22T09:09:35.906Z,99196.88
2024-04-22T09:12:08.232Z,99198.98
2024-04-22T09:14:16.962Z,99198.10
2024-04-22T09:16:19.810Z,99199.73
2024-04-22T09:18:24.055Z,99195.89
2024-04-22T09:20:34.670Z,99194.74
2024-04-22T09:22:37.167Z,99196.35
2024-04-22T09:24:39.641Z,99197.09
2024-04-22T09:26:42.820Z,99196.73
2024-04-22T09:28:46.709Z,99194.13
2024-04-22T09:30:54.676Z,99193.48
2024-04-22T09:33:00.614Z,99191.86
2024-04-22T09:35:16.666Z,99191.45
2024-04-22T09:37:23.615Z,99188.27
2024-04-22T09:39:28.052Z,99183.85
2024-04-22T09:41:31.631Z,99184.37
2024-04-22T09:43:38.485Z,99185.35
2024-04-22T09:45:42.173Z,99182.42
2024-04-22T09:47:47.336Z,99176.34
2024-04-22T09:49:52.332Z,99179.66
2024-04-22T09:51:58.071Z,99184.52
2024-04-22T09:54:00.832Z,99181.61
2024-04-22T09:56:08.479Z,99179.52
2024-04-22T09:58:12.351Z,99183.23
2024-04-22T10:00:17.098Z,99184.33
2024-04-22T10:02:19.768Z,99183.23
2024-04-22T10:04:22.858Z,99185.98
2024-04-22T10:06:27.168Z,99180.01
2024-04-22T10:08:30.105Z,99180.80
2024-04-22T10:10:32.663Z,99178.53
2024-04-22T10:12:35.411Z,99183.35
2024-04-22T10:14:37.917Z,99183.41
2024-04-22T10:16:41.389Z,99183.14
2024-04-22T10:18:48.484Z,99176.48
2024-04-22T10:20:52.463Z,99179.80
2024-04-22T10:22:55.367Z,99179.52
2024-04-22T10:24:59.491Z,99177.58
2024-04-22T10:27:11.572Z,99174.91
2024-04-22T10:29:15.587Z,99174.56
2024-04-22T10:31:20.948Z,99176.62
2024-04-22T10:33:23.444Z,99173.55
2024-04-22T10:35:26.260Z,99166.04
2024-04-22T10:37:29.100Z,99167.40
2024-04-22T10:39:32.227Z,99161.75
2024-04-22T10:41:35.766Z,99159.30
2024-04-22T10:43:39.628Z,99162.61
2024-04-22T10:45:42.248Z,99163.59
2024-04-22T10:47:46.712Z,99163.85
2024-04-22T10:49:52.375Z,99167.34
2024-04-22T10:51:54.936Z,99164.36
2024-04-22T10:53:57.471Z,99168.48
2024-04-22T10:56:00.076Z,99166.19
2024-04-22T10:58:03.122Z,99166.48
2024-04-22T11:00:07.142Z,99164.53
2024-04-22T11:02:13.143Z,99162.01
2024-04-22T11:04:17.033Z,99161.81
2024-04-22T11:06:21.048Z,99157.30
2024-04-22T11:08:23.642Z,99155.52
2024-04-22T11:10:34.505Z,99156.83
2024-04-22T11:12:43.879Z,99152.64
2024-04-22T11:14:46.465Z,99151.00
2024-04-22T11:16:58.113Z,99150.77
2024-04-22T11:19:07.054Z,99147.97
2024-04-22T11:21:10.024Z,99149.05
2024-04-22T11:23:12.562Z,99148.98
2024-04-22T11:25:15.137Z,99147.12
2024-04-22T11:27:17.944Z,99151.64
2024-04-22T11:29:20.850Z,99150.42
2024-04-22T11:31:23.528Z,99145.28
2024-04-22T11:33:29.492Z,99139.72
2024-04-22T11:35:38.492Z,99139.98
2024-04-22T11:37:41.513Z,99141.80
2024-04-22T11:39:44.740Z,99141.56
2024-04-22T11:41:47.950Z,99143.77
2024-04-22T11:43:50.576Z,99141.06
2024-04-22T11:45:53.316Z,99139.24
2024-04-22T11:47:55.928Z,99140.39
2024-04-22T11:49:58.455Z,99138.01
2024-04-22T11:52:00.935Z,99135.63
2024-04-22T11:54:05.851Z,99132.20
2024-04-22T11:56:09.277Z,99133.67
2024-04-22T11:58:11.917Z,99135.09
2024-04-22T12:00:14.484Z,99132.39
2024-04-22T12:02:18.261Z,99132.85
2024-04-22T12:04:21.059Z,99130.64
2024-04-22T12:06:24.299Z,99132.73
2024-04-22T12:08:26.762Z,99131.52
2024-04-22T12:10:29.559Z,99128.33
2024-04-22T12:12:32.693Z,99121.48
2024-04-22T12:14:36.045Z,99122.05
2024-04-22T12:16:38.578Z,99117.08
2024-04-22T12:18:41.172Z,99120.24
2024-04-22T12:20:43.717Z,99114.15
2024-04-22T12:22:46.157Z,99114.83
2024-04-22T12:24:48.938Z,99108.61
2024-04-22T12:26:51.519Z,99103.36
2024-04-22T12:28:53.926Z,99098.53
2024-04-22T12:30:56.521Z,99097.07
2024-04-22T12:32:59.052Z,99102.06
2024-04-22T12:35:03.622Z,99102.33
2024-04-22T12:37:06.316Z,99099.36
2024-04-22T12:39:09.001Z,99104.14
2024-04-22T12:41:11.711Z,99105.29
2024-04-22T12:43:14.216Z,99102.08
2024-04-22T12:45:17.232Z,99101.64
2024-04-22T12:47:38.423Z,99098.92
2024-04-22T12:49:59.629Z,99095.02
2024-04-22T12:52:02.222Z,99091.91
2024-04-22T12:54:05.077Z,99091.20
2024-04-22T12:56:07.632Z,99083.86
2024-04-22T12:58:10.999Z,99082.53
2024-04-22T13:00:14.240Z,99085.17
2024-04-22T13:02:16.765Z,99080.37
2024-04-22T13:04:21.009Z,99078.42
2024-04-22T13:06:23.643Z,99076.89
2024-04-22T13:08:26.053Z,99076.66
2024-04-22T13:10:28.599Z,99070.79
2024-04-22T13:12:31.267Z,99070.37
2024-04-22T13:14:33.707Z,99069.10
2024-04-22T13:16:36.206Z,99068.05
2024-04-22T13:18:38.704Z,99067.28
2024-04-22T13:20:41.587Z,99059.85
2024-04-22T13:22:44.124Z,99061.08
2024-04-22T13:24:46.801Z,99059.84
2024-04-22T13:26:49.300Z,99062.86
2024-04-22T13:28:51.964Z,99058.30
2024-04-22T13:30:56.402Z,99054.49
2024-04-22T13:33:00.325Z,99052.80
2024-04-22T13:35:03.380Z,99048.57
2024-04-22T13:37:05.903Z,99052.27
2024-04-22T13:39:08.423Z,99052.49
2024-04-22T13:41:11.268Z,99039.15
2024-04-22T13:43:13.863Z,99037.41
2024-04-22T13:45:16.558Z,99038.34
2024-04-22T13:47:19.055Z,99037.19
2024-04-22T13:49:21.470Z,99037.36
2024-04-22T13:51:23.920Z,99032.91
2024-04-22T13:53:31.689Z,99031.61
2024-04-22T13:55:35.280Z,99036.96
2024-04-22T13:57:39.532Z,99035.08
2024-04-22T13:59:42.335Z,99036.52
2024-04-22T14:01:44.856Z,99035.66
2024-04-22T14:03:48.742Z,99036.30
2024-04-22T14:05:51.231Z,99036.73
2024-04-22T14:07:54.711Z,99033.16
2024-04-22T14:09:57.263Z,99041.41
2024-04-22T14:11:59.867Z,99042.52
2024-04-22T14:14:02.500Z,99047.65
2024-04-22T14:16:06.114Z,99049.54
2024-04-22T14:18:09.227Z,99050.16
2024-04-22T14:20:11.782Z,99051.25
2024-04-22T14:22:14.277Z,99048.34
2024-04-22T14:24:17.499Z,99048.58
2024-04-22T14:26:20.570Z,99051.20
2024-04-22T14:28:25.238Z,99047.90
2024-04-22T14:30:27.779Z,99047.39
2024-04-22T14:32:30.463Z,99045.71
2024-04-22T14:34:33.011Z,99042.31
2024-04-22T14:36:35.556Z,99042.84
2024-04-22T14:38:38.014Z,99038.64
2024-04-22T14:40:40.475Z,99035.45
2024-04-22T14:42:42.946Z,99032.73
2024-04-22T14:44:45.844Z,99024.64
2024-04-22T14:46:49.433Z,99027.95
2024-04-22T14:48:53.046Z,99018.94
2024-04-22T14:50:55.684Z,99017.00
2024-04-22T14:52:59.017Z,99019.30
2024-04-22T14:55:01.559Z,99013.35
2024-04-22T14:57:04.421Z,99014.06
2024-04-22T14:59:07.501Z,99008.66
2024-04-22T15:01:10.224Z,99008.21
2024-04-22T15:03:14.865Z,99006.13
2024-04-22T15:05:18.063Z,99006.38
2024-04-22T15:07:21.383Z,99004.25
2024-04-22T15:09:25.718Z,99000.40
2024-04-22T15:11:30.272Z,99001.77
2024-04-22T15:13:33.127Z,98997.84
2024-04-22T15:15:35.594Z,99001.46
2024-04-22T15:17:38.108Z,98996.61
2024-04-22T15:19:44.085Z,98989.81
2024-04-22T15:21:46.932Z,98993.77
2024-04-22T15:23:52.109Z,98994.82
2024-04-22T15:25:54.812Z,98995.52
2024-04-22T15:27:57.324Z,98992.25
2024-04-22T15:29:59.798Z,98993.60
2024-04-22T15:32:03.125Z,98995.08
2024-04-22T15:34:05.910Z,98991.44
2024-04-22T15:36:08.659Z,98991.41
2024-04-22T15:38:11.293Z,98992.77
2024-04-22T15:40:13.886Z,98994.88
2024-04-22T15:42:16.757Z,98993.36
2024-04-22T15:44:19.131Z,98993.27
2024-04-22T15:46:21.850Z,98993.67
2024-04-22T15:48:24.436Z,98991.58
2024-04-22T15:50:27.088Z,98988.67
2024-04-22T15:52:29.526Z,98989.94
2024-04-22T15:54:32.100Z,98989.11
2024-04-22T15:56:35.917Z,98992.56
2024-04-22T15:58:41.467Z,98991.55
2024-04-22T16:00:43.998Z,98988.20
2024-04-22T16:02:46.753Z,98993.67
2024-04-22T16:04:50.980Z,98991.25
2024-04-22T16:06:53.487Z,98993.34
2024-04-22T16:08:56.158Z,98995.19
2024-04-22T16:10:58.848Z,98994.50
2024-04-22T16:13:01.569Z,98991.48
2024-04-22T16:15:05.465Z,98989.66
2024-04-22T16:17:07.873Z,98987.48
2024-04-22T16:19:11.872Z,98985.36
2024-04-22T16:21:17.376Z,98984.77
2024-04-22T16:23:20.397Z,98982.79
2024-04-22T16:25:25.891Z,98982.27
2024-04-22T16:27:28.590Z,98979.00
2024-04-22T16:29:31.004Z,98983.22
2024-04-22T16:31:33.537Z,98983.26
2024-04-22T16:33:38.826Z,98980.86
2024-04-22T16:35:41.805Z,98983.69
2024-04-22T16:37:44.281Z,98984.11
2024-04-22T16:39:46.805Z,98982.31
2024-04-22T16:41:49.361Z,98979.40
2024-04-22T16:43:51.853Z,98979.80
2024-04-22T16:45:54.278Z,98976.67
2024-04-22T16:47:57.716Z,98975.64
2024-04-22T16:50:03.029Z,98971.33
2024-04-22T16:52:06.587Z,98973.94
2024-04-22T16:54:08.996Z,98975.80
2024-04-22T16:56:11.525Z,98975.70
2024-04-22T16:58:14.020Z,98978.23
2024-04-22T17:00:16.982Z,98978.52
2024-04-22T17:02:19.800Z,98978.64
2024-04-22T17:04:22.589Z,98980.85
2024-04-22T17:06:25.066Z,98981.12
2024-04-22T17:08:27.925Z,98983.34
2024-04-22T17:10:30.527Z,98985.48
2024-04-22T17:12:33.609Z,98989.33
2024-04-22T17:14:35.967Z,98990.03
2024-04-22T17:16:38.592Z,98990.75
2024-04-22T17:18:41.078Z,98992.78
2024-04-22T17:20:52.814Z,98988.56
2024-04-22T17:22:55.440Z,98991.95
2024-04-22T17:24:57.986Z,98991.11
2024-04-22T17:27:00.763Z,98996.23
2024-04-22T17:29:03.353Z,98993.91
2024-04-22T17:31:07.151Z,98999.16
2024-04-22T17:33:10.132Z,98997.52
2024-04-22T17:35:12.611Z,98997.59
2024-04-22T17:37:18.898Z,98998.14
2024-04-22T17:39:21.505Z,98999.81
2024-04-22T17:41:24.045Z,99001.17
2024-04-22T17:43:26.568Z,98998.90
2024-04-22T17:45:29.223Z,98999.69
2024-04-22T17:47:31.838Z,99004.69
2024-04-22T17:49:34.942Z,99005.26
2024-04-22T17:51:37.628Z,99003.00
2024-04-22T17:53:40.407Z,99005.41
2024-04-22T17:55:44.453Z,99007.58
2024-04-22T17:57:47.447Z,99010.02
2024-04-22T17:59:50.198Z,99011.42
2024-04-22T18:01:53.851Z,99011.33
2024-04-22T18:03:59.248Z,99009.44
2024-04-22T18:06:03.517Z,99011.30
2024-04-22T18:08:11.457Z,99014.06
2024-04-22T18:10:18.181Z,99011.57
2024-04-22T18:12:20.788Z,99008.98
2024-04-22T18:14:25.944Z,99009.80
2024-04-22T18:16:29.633Z,99009.13
2024-04-22T18:18:33.470Z,99010.33
2024-04-22T18:20:37.116Z,99009.64
2024-04-22T18:22:44.460Z,99010.27
2024-04-22T18:24:56.003Z,99011.70
2024-04-22T18:27:01.658Z,99012.72
2024-04-22T18:29:04.543Z,99015.35
2024-04-22T18:31:06.940Z,99020.45
2024-04-22T18:33:09.465Z,99019.64
2024-04-22T18:35:12.002Z,99022.77
2024-04-22T18:37:15.393Z,99023.94
2024-04-22T18:39:19.132Z,99026.15
2024-04-22T18:41:22.038Z,99026.28
2024-04-22T18:43:25.586Z,99026.17
2024-04-22T18:45:28.761Z,99024.15
2024-04-22T18:47:31.269Z,99029.44
2024-04-22T18:49:34.066Z,99031.30
2024-04-22T18:51:36.604Z,99036.36
2024-04-22T18:53:40.410Z,99040.33
2024-04-22T18:55:43.929Z,99043.58
2024-04-22T18:57:48.341Z,99041.98
2024-04-22T18:59:52.028Z,99040.13
2024-04-22T19:01:55.961Z,99041.70
2024-04-22T19:03:58.508Z,99046.11
2024-04-22T19:06:03.103Z,99047.26
2024-04-22T19:08:07.497Z,99047.66
2024-04-22T19:10:11.976Z,99048.09
2024-04-22T19:12:16.187Z,99046.27
2024-04-22T19:14:23.236Z,99048.50
2024-04-22T19:16:27.575Z,99049.09
2024-04-22T19:18:31.267Z,99050.17
2024-04-22T19:20:35.247Z,99052.14
2024-04-22T19:22:39.153Z,99053.96
2024-04-22T19:24:44.127Z,99057.06
2024-04-22T19:26:47.701Z,99057.00
2024-04-22T19:28:51.088Z,99055.91
2024-04-22T19:30:56.175Z,99054.93
2024-04-22T19:32:58.707Z,99057.41
2024-04-22T19:35:01.241Z,99054.80
2024-04-22T19:37:04.273Z,99057.29
2024-04-22T19:39:07.852Z,99057.02
2024-04-22T19:41:10.352Z,99058.67
2024-04-22T19:43:12.873Z,99063.86
2024-04-22T19:45:16.496Z,99065.02
2024-04-22T19:47:19.237Z,99064.98
2024-04-22T19:49:22.590Z,99069.34
2024-04-22T19:51:25.035Z,99073.04
2024-04-22T19:53:27.449Z,99071.52
2024-04-22T19:55:29.945Z,99074.36
2024-04-22T19:57:33.715Z,99076.48
2024-04-22T19:59:38.275Z,99081.92
2024-04-22T20:01:40.931Z,99086.09
2024-04-22T20:03:43.503Z,99087.20
2024-04-22T20:05:46.134Z,99087.06
2024-04-22T20:07:48.707Z,99090.80
2024-04-22T20:09:51.113Z,99090.48
2024-04-22T20:11:53.524Z,99092.38
2024-04-22T20:13:55.965Z,99090.19
2024-04-22T20:16:15.476Z,99092.80
2024-04-22T20:18:28.949Z,99090.32
2024-04-22T20:20:31.701Z,99091.34
2024-04-22T20:22:34.158Z,99097.27
2024-04-22T20:24:36.768Z,99099.31
2024-04-22T20:26:39.257Z,99098.42
2024-04-22T20:28:41.940Z,99097.60
2024-04-22T20:30:44.431Z,99093.73
2024-04-22T20:32:49.216Z,99096.13
2024-04-22T20:34:51.865Z,99094.13
2024-04-22T20:36:54.317Z,99095.30
2024-04-22T20:38:57.478Z,99093.64
2024-04-22T20:41:01.737Z,99097.19
2024-04-22T20:43:04.534Z,99097.52
2024-04-22T20:45:09.205Z,99101.31
2024-04-22T20:47:12.828Z,99101.70
2024-04-22T20:49:19.746Z,99104.88
2024-04-22T20:51:22.179Z,99098.53
2024-04-22T20:53:25.662Z,99104.45
2024-04-22T20:55:28.380Z,99103.28
2024-04-22T20:57:30.900Z,99102.02
2024-04-22T20:59:33.309Z,99103.36
2024-04-22T21:01:39.071Z,99102.62
2024-04-22T21:03:41.568Z,99098.91
2024-04-22T21:05:45.415Z,99100.09
2024-04-22T21:07:47.880Z,99101.92
2024-04-22T21:09:51.067Z,99103.92
2024-04-22T21:11:53.544Z,99106.77
2024-04-22T21:14:00.750Z,99107.21
2024-04-22T21:16:04.918Z,99104.96
2024-04-22T21:18:08.138Z,99105.23
2024-04-22T21:20:10.769Z,99100.91
2024-04-22T21:22:13.184Z,99097.13
2024-04-22T21:24:15.630Z,99098.08
2024-04-22T21:26:17.993Z,99095.33
2024-04-22T21:28:20.451Z,99097.66
2024-04-22T21:30:24.931Z,99092.36
2024-04-22T21:32:27.679Z,99096.34
2024-04-22T21:34:30.155Z,99095.88
2024-04-22T21:36:32.685Z,99097.12
2024-04-22T21:38:35.111Z,99091.92
2024-04-22T21:40:37.623Z,99093.02
2024-04-22T21:42:40.276Z,99101.25
2024-04-22T21:44:42.663Z,99100.21
2024-04-22T21:46:45.161Z,99095.52
2024-04-22T21:48:47.676Z,99094.94
2024-04-22T21:50:51.706Z,99090.50
2024-04-22T21:52:54.172Z,99092.77
2024-04-22T21:54:57.057Z,99093.61
2024-04-22T21:57:37.048Z,99096.30
2024-04-22T22:00:17.144Z,99095.56
2024-04-22T22:03:01.440Z,99095.68
2024-04-22T22:05:42.175Z,99094.29
2024-04-22T22:07:44.691Z,99095.77
2024-04-22T22:09:49.033Z,99097.23
2024-04-22T22:11:51.996Z,99100.77
2024-04-22T22:13:54.899Z,99105.45
2024-04-22T22:15:57.350Z,99103.20
2024-04-22T22:18:02.092Z,99106.07
2024-04-22T22:20:07.136Z,99105.16
2024-04-22T22:22:10.063Z,99104.33
2024-04-22T22:24:12.916Z,99104.59
2024-04-22T22:26:15.404Z,99098.04
2024-04-22T22:28:17.848Z,99099.36
2024-04-22T22:30:20.318Z,99098.95
2024-04-22T22:32:23.033Z,99097.00
2024-04-22T22:34:25.871Z,99096.94
2024-04-22T22:36:30.115Z,99100.03
2024-04-22T22:38:32.590Z,99097.30
2024-04-22T22:40:35.164Z,99095.44
2024-04-22T22:42:37.773Z,99097.34
2024-04-22T22:44:40.164Z,99098.52
2024-04-22T22:46:42.700Z,99097.75
2024-04-22T22:48:45.508Z,99098.47
2024-04-22T22:50:48.229Z,99095.78
2024-04-22T22:52:50.643Z,99092.76
2024-04-22T22:54:53.067Z,99094.06
2024-04-22T22:56:57.555Z,99093.45
2024-04-22T22:59:00.109Z,99092.30
2024-04-22T23:01:03.107Z,99092.73
2024-04-22T23:03:05.797Z,99091.91
2024-04-22T23:05:08.270Z,99088.59
2024-04-22T23:07:10.661Z,99089.73
2024-04-22T23:09:13.840Z,99084.85
2024-04-22T23:11:16.348Z,99086.46
2024-04-22T23:13:18.887Z,99085.17
2024-04-22T23:15:21.429Z,99080.88
2024-04-22T23:17:23.910Z,99082.46
2024-04-22T23:19:26.431Z,99079.94
2024-04-22T23:21:29.399Z,99080.96
2024-04-22T23:23:32.370Z,99079.00
2024-04-22T23:25:34.858Z,99076.84
2024-04-22T23:27:39.519Z,99073.98
2024-04-22T23:29:42.129Z,99074.96
2024-04-22T23:31:44.736Z,99076.03
2024-04-22T23:33:47.384Z,99071.73
2024-04-22T23:35:50.010Z,99073.35
2024-04-22T23:37:52.698Z,99073.57
2024-04-22T23:39:55.358Z,99070.77
2024-04-22T23:41:57.889Z,99066.20
2024-04-22T23:44:00.664Z,99063.55
2024-04-22T23:46:03.260Z,99060.55
2024-04-22T23:48:06.664Z,99061.02
2024-04-22T23:50:09.240Z,99055.41
2024-04-22T23:52:11.824Z,99057.06
2024-04-22T23:54:14.617Z,99057.23
2024-04-22T23:56:17.066Z,99056.04
2024-04-22T23:58:19.508Z,99052.73
